sensor_id;sensor_type;location;lat;lon;timestamp;P1;durP1;ratioP1;P2;durP2;ratioP2
79220;SDS011;72175;52.118;5.406;2023-12-28T00:02:12;2.75;;;0.40;;
79220;SDS011;72175;52.118;5.406;2023-12-28T00:04:41;2.05;;;0.30;;
79220;SDS011;72175;52.118;5.406;2023-12-28T00:07:07;2.05;;;0.30;;
79220;SDS011;72175;52.118;5.406;2023-12-28T00:09:34;1.35;;;0.20;;
79220;SDS011;72175;52.118;5.406;2023-12-28T00:12:01;1.70;;;0.20;;
79220;SDS011;72175;52.118;5.406;2023-12-28T00:14:27;0.98;;;0.20;;
79220;SDS011;72175;52.118;5.406;2023-12-28T00:16:56;1.92;;;0.10;;
79220;SDS011;72175;52.118;5.406;2023-12-28T00:19:22;1.48;;;0.35;;
79220;SDS011;72175;52.118;5.406;2023-12-28T00:21:49;2.45;;;0.30;;
79220;SDS011;72175;52.118;5.406;2023-12-28T00:24:20;1.70;;;0.17;;
79220;SDS011;72175;52.118;5.406;2023-12-28T00:26:47;2.03;;;0.20;;
79220;SDS011;72175;52.118;5.406;2023-12-28T00:29:13;1.95;;;0.30;;
79220;SDS011;72175;52.118;5.406;2023-12-28T00:31:41;2.70;;;0.20;;
79220;SDS011;72175;52.118;5.406;2023-12-28T00:34:08;1.58;;;0.30;;
79220;SDS011;72175;52.118;5.406;2023-12-28T00:36:35;1.98;;;0.30;;
79220;SDS011;72175;52.118;5.406;2023-12-28T00:39:01;1.88;;;0.22;;
79220;SDS011;72175;52.118;5.406;2023-12-28T00:41:28;2.35;;;0.20;;
79220;SDS011;72175;52.118;5.406;2023-12-28T00:43:57;1.75;;;0.20;;
79220;SDS011;72175;52.118;5.406;2023-12-28T00:46:24;1.80;;;0.35;;
79220;SDS011;72175;52.118;5.406;2023-12-28T00:48:51;2.00;;;0.20;;
79220;SDS011;72175;52.118;5.406;2023-12-28T00:51:19;1.27;;;0.20;;
79220;SDS011;72175;52.118;5.406;2023-12-28T00:53:47;2.22;;;0.30;;
79220;SDS011;72175;52.118;5.406;2023-12-28T00:56:14;1.65;;;0.20;;
79220;SDS011;72175;52.118;5.406;2023-12-28T00:58:40;2.30;;;0.22;;
79220;SDS011;72175;52.118;5.406;2023-12-28T01:01:09;1.83;;;0.17;;
79220;SDS011;72175;52.118;5.406;2023-12-28T01:03:36;1.40;;;0.20;;
79220;SDS011;72175;52.118;5.406;2023-12-28T01:06:04;1.00;;;0.28;;
79220;SDS011;72175;52.118;5.406;2023-12-28T01:08:31;1.50;;;0.20;;
79220;SDS011;72175;52.118;5.406;2023-12-28T01:11:00;1.38;;;0.20;;
79220;SDS011;72175;52.118;5.406;2023-12-28T01:13:27;2.85;;;0.30;;
79220;SDS011;72175;52.118;5.406;2023-12-28T01:15:54;0.75;;;0.10;;
79220;SDS011;72175;52.118;5.406;2023-12-28T01:18:22;1.55;;;0.20;;
79220;SDS011;72175;52.118;5.406;2023-12-28T01:20:49;1.52;;;0.10;;
79220;SDS011;72175;52.118;5.406;2023-12-28T01:23:15;1.73;;;0.32;;
79220;SDS011;72175;52.118;5.406;2023-12-28T01:25:42;2.15;;;0.40;;
79220;SDS011;72175;52.118;5.406;2023-12-28T01:28:09;2.28;;;0.20;;
79220;SDS011;72175;52.118;5.406;2023-12-28T01:30:35;1.70;;;0.22;;
79220;SDS011;72175;52.118;5.406;2023-12-28T01:33:02;2.05;;;0.20;;
79220;SDS011;72175;52.118;5.406;2023-12-28T01:35:29;1.48;;;0.13;;
79220;SDS011;72175;52.118;5.406;2023-12-28T01:37:55;1.95;;;0.20;;
79220;SDS011;72175;52.118;5.406;2023-12-28T01:40:22;1.35;;;0.20;;
79220;SDS011;72175;52.118;5.406;2023-12-28T01:42:49;2.17;;;0.22;;
79220;SDS011;72175;52.118;5.406;2023-12-28T01:45:18;2.05;;;0.40;;
79220;SDS011;72175;52.118;5.406;2023-12-28T01:47:46;2.00;;;0.20;;
79220;SDS011;72175;52.118;5.406;2023-12-28T01:50:15;1.58;;;0.17;;
79220;SDS011;72175;52.118;5.406;2023-12-28T01:52:42;1.45;;;0.20;;
79220;SDS011;72175;52.118;5.406;2023-12-28T01:55:10;1.35;;;0.20;;
79220;SDS011;72175;52.118;5.406;2023-12-28T01:57:37;2.30;;;0.32;;
79220;SDS011;72175;52.118;5.406;2023-12-28T02:00:04;1.63;;;0.20;;
79220;SDS011;72175;52.118;5.406;2023-12-28T02:02:32;2.28;;;0.30;;
79220;SDS011;72175;52.118;5.406;2023-12-28T02:05:00;3.22;;;0.30;;
79220;SDS011;72175;52.118;5.406;2023-12-28T02:07:27;1.50;;;0.30;;
79220;SDS011;72175;52.118;5.406;2023-12-28T02:09:56;1.60;;;0.20;;
79220;SDS011;72175;52.118;5.406;2023-12-28T02:12:22;1.98;;;0.32;;
79220;SDS011;72175;52.118;5.406;2023-12-28T02:14:49;1.90;;;0.20;;
79220;SDS011;72175;52.118;5.406;2023-12-28T02:17:19;1.67;;;0.20;;
79220;SDS011;72175;52.118;5.406;2023-12-28T02:19:50;2.08;;;0.20;;
79220;SDS011;72175;52.118;5.406;2023-12-28T02:22:20;0.70;;;0.13;;
79220;SDS011;72175;52.118;5.406;2023-12-28T02:27:38;1.98;;;0.17;;
79220;SDS011;72175;52.118;5.406;2023-12-28T02:30:07;2.58;;;0.50;;
79220;SDS011;72175;52.118;5.406;2023-12-28T02:32:52;2.15;;;0.17;;
79220;SDS011;72175;52.118;5.406;2023-12-28T02:35:36;1.42;;;0.20;;
79220;SDS011;72175;52.118;5.406;2023-12-28T02:38:08;1.67;;;0.17;;
79220;SDS011;72175;52.118;5.406;2023-12-28T02:40:36;1.45;;;0.20;;
79220;SDS011;72175;52.118;5.406;2023-12-28T02:43:07;2.33;;;0.30;;
79220;SDS011;72175;52.118;5.406;2023-12-28T02:45:35;2.22;;;0.40;;
79220;SDS011;72175;52.118;5.406;2023-12-28T02:48:02;3.15;;;0.20;;
79220;SDS011;72175;52.118;5.406;2023-12-28T02:50:31;1.05;;;0.20;;
79220;SDS011;72175;52.118;5.406;2023-12-28T02:52:58;1.02;;;0.10;;
79220;SDS011;72175;52.118;5.406;2023-12-28T02:55:24;1.77;;;0.22;;
79220;SDS011;72175;52.118;5.406;2023-12-28T02:57:53;1.98;;;0.30;;
79220;SDS011;72175;52.118;5.406;2023-12-28T03:00:22;2.17;;;0.20;;
79220;SDS011;72175;52.118;5.406;2023-12-28T03:02:49;1.00;;;0.20;;
79220;SDS011;72175;52.118;5.406;2023-12-28T03:05:16;1.27;;;0.17;;
79220;SDS011;72175;52.118;5.406;2023-12-28T03:07:42;1.40;;;0.30;;
79220;SDS011;72175;52.118;5.406;2023-12-28T03:10:10;2.55;;;0.40;;
79220;SDS011;72175;52.118;5.406;2023-12-28T03:12:40;1.27;;;0.10;;
79220;SDS011;72175;52.118;5.406;2023-12-28T03:15:07;2.22;;;0.20;;
79220;SDS011;72175;52.118;5.406;2023-12-28T03:17:35;2.17;;;0.40;;
79220;SDS011;72175;52.118;5.406;2023-12-28T03:20:03;1.80;;;0.40;;
79220;SDS011;72175;52.118;5.406;2023-12-28T03:22:31;2.42;;;0.13;;
79220;SDS011;72175;52.118;5.406;2023-12-28T03:24:59;2.08;;;0.30;;
79220;SDS011;72175;52.118;5.406;2023-12-28T03:27:26;2.25;;;0.35;;
79220;SDS011;72175;52.118;5.406;2023-12-28T03:29:52;1.85;;;0.20;;
79220;SDS011;72175;52.118;5.406;2023-12-28T03:32:20;1.35;;;0.30;;
79220;SDS011;72175;52.118;5.406;2023-12-28T03:34:46;1.50;;;0.20;;
79220;SDS011;72175;52.118;5.406;2023-12-28T03:37:13;2.67;;;0.30;;
79220;SDS011;72175;52.118;5.406;2023-12-28T03:39:41;2.42;;;0.20;;
79220;SDS011;72175;52.118;5.406;2023-12-28T03:42:08;1.90;;;0.22;;
79220;SDS011;72175;52.118;5.406;2023-12-28T03:44:34;1.73;;;0.20;;
79220;SDS011;72175;52.118;5.406;2023-12-28T03:47:04;2.00;;;0.30;;
79220;SDS011;72175;52.118;5.406;2023-12-28T03:49:31;1.40;;;0.20;;
79220;SDS011;72175;52.118;5.406;2023-12-28T03:51:57;1.70;;;0.30;;
79220;SDS011;72175;52.118;5.406;2023-12-28T03:54:24;1.63;;;0.15;;
79220;SDS011;72175;52.118;5.406;2023-12-28T03:56:51;1.45;;;0.20;;
79220;SDS011;72175;52.118;5.406;2023-12-28T03:59:17;1.10;;;0.10;;
79220;SDS011;72175;52.118;5.406;2023-12-28T04:01:46;1.63;;;0.25;;
79220;SDS011;72175;52.118;5.406;2023-12-28T04:04:13;1.25;;;0.10;;
79220;SDS011;72175;52.118;5.406;2023-12-28T04:06:40;1.67;;;0.22;;
79220;SDS011;72175;52.118;5.406;2023-12-28T04:09:08;1.27;;;0.20;;
79220;SDS011;72175;52.118;5.406;2023-12-28T04:11:37;1.60;;;0.20;;
79220;SDS011;72175;52.118;5.406;2023-12-28T04:14:05;2.13;;;0.20;;
79220;SDS011;72175;52.118;5.406;2023-12-28T04:16:32;1.48;;;0.20;;
79220;SDS011;72175;52.118;5.406;2023-12-28T04:18:58;0.93;;;0.13;;
79220;SDS011;72175;52.118;5.406;2023-12-28T04:21:25;2.63;;;0.30;;
79220;SDS011;72175;52.118;5.406;2023-12-28T04:23:52;1.52;;;0.17;;
79220;SDS011;72175;52.118;5.406;2023-12-28T04:26:18;1.98;;;0.20;;
79220;SDS011;72175;52.118;5.406;2023-12-28T04:28:48;3.55;;;0.20;;
79220;SDS011;72175;52.118;5.406;2023-12-28T04:31:14;2.13;;;0.20;;
79220;SDS011;72175;52.118;5.406;2023-12-28T04:33:41;2.63;;;0.30;;
79220;SDS011;72175;52.118;5.406;2023-12-28T04:36:09;2.15;;;0.25;;
79220;SDS011;72175;52.118;5.406;2023-12-28T04:38:36;2.40;;;0.28;;
79220;SDS011;72175;52.118;5.406;2023-12-28T04:41:02;2.00;;;0.22;;
79220;SDS011;72175;52.118;5.406;2023-12-28T04:43:30;2.13;;;0.20;;
79220;SDS011;72175;52.118;5.406;2023-12-28T04:45:57;2.22;;;0.25;;
79220;SDS011;72175;52.118;5.406;2023-12-28T04:48:23;2.13;;;0.20;;
79220;SDS011;72175;52.118;5.406;2023-12-28T04:50:53;1.20;;;0.20;;
79220;SDS011;72175;52.118;5.406;2023-12-28T04:53:20;1.48;;;0.20;;
79220;SDS011;72175;52.118;5.406;2023-12-28T04:55:47;1.67;;;0.20;;
79220;SDS011;72175;52.118;5.406;2023-12-28T04:58:13;1.95;;;0.20;;
79220;SDS011;72175;52.118;5.406;2023-12-28T05:00:40;1.23;;;0.22;;
79220;SDS011;72175;52.118;5.406;2023-12-28T05:03:09;1.05;;;0.20;;
79220;SDS011;72175;52.118;5.406;2023-12-28T05:05:35;1.63;;;0.40;;
79220;SDS011;72175;52.118;5.406;2023-12-28T05:08:02;2.25;;;0.28;;
79220;SDS011;72175;52.118;5.406;2023-12-28T05:10:29;1.92;;;0.20;;
79220;SDS011;72175;52.118;5.406;2023-12-28T05:12:56;1.17;;;0.30;;
79220;SDS011;72175;52.118;5.406;2023-12-28T05:15:27;1.88;;;0.13;;
79220;SDS011;72175;52.118;5.406;2023-12-28T05:17:55;2.53;;;0.20;;
79220;SDS011;72175;52.118;5.406;2023-12-28T05:20:23;2.55;;;0.20;;
79220;SDS011;72175;52.118;5.406;2023-12-28T05:22:50;2.58;;;0.73;;
79220;SDS011;72175;52.118;5.406;2023-12-28T05:25:17;1.90;;;0.20;;
79220;SDS011;72175;52.118;5.406;2023-12-28T05:27:43;1.67;;;0.20;;
79220;SDS011;72175;52.118;5.406;2023-12-28T05:30:10;1.48;;;0.20;;
79220;SDS011;72175;52.118;5.406;2023-12-28T05:32:39;1.70;;;0.30;;
79220;SDS011;72175;52.118;5.406;2023-12-28T05:35:06;1.98;;;0.20;;
79220;SDS011;72175;52.118;5.406;2023-12-28T05:37:33;1.65;;;0.20;;
79220;SDS011;72175;52.118;5.406;2023-12-28T05:40:01;2.50;;;0.22;;
79220;SDS011;72175;52.118;5.406;2023-12-28T05:42:28;2.15;;;0.20;;
79220;SDS011;72175;52.118;5.406;2023-12-28T05:44:55;2.42;;;0.22;;
79220;SDS011;72175;52.118;5.406;2023-12-28T05:47:22;1.98;;;0.32;;
79220;SDS011;72175;52.118;5.406;2023-12-28T05:49:50;2.05;;;0.20;;
79220;SDS011;72175;52.118;5.406;2023-12-28T05:52:18;1.55;;;0.10;;
79220;SDS011;72175;52.118;5.406;2023-12-28T05:54:46;1.85;;;0.10;;
79220;SDS011;72175;52.118;5.406;2023-12-28T05:57:15;2.83;;;0.20;;
79220;SDS011;72175;52.118;5.406;2023-12-28T05:59:42;1.55;;;0.20;;
79220;SDS011;72175;52.118;5.406;2023-12-28T06:02:10;2.75;;;0.20;;
79220;SDS011;72175;52.118;5.406;2023-12-28T06:04:36;1.77;;;0.20;;
79220;SDS011;72175;52.118;5.406;2023-12-28T06:07:04;3.00;;;0.20;;
79220;SDS011;72175;52.118;5.406;2023-12-28T06:09:31;2.05;;;0.32;;
79220;SDS011;72175;52.118;5.406;2023-12-28T06:11:58;1.40;;;0.30;;
79220;SDS011;72175;52.118;5.406;2023-12-28T06:14:25;2.10;;;0.20;;
79220;SDS011;72175;52.118;5.406;2023-12-28T06:16:52;1.02;;;0.10;;
79220;SDS011;72175;52.118;5.406;2023-12-28T06:19:19;1.20;;;0.20;;
79220;SDS011;72175;52.118;5.406;2023-12-28T06:21:46;1.75;;;0.20;;
79220;SDS011;72175;52.118;5.406;2023-12-28T06:24:13;2.28;;;0.15;;
79220;SDS011;72175;52.118;5.406;2023-12-28T06:26:40;1.80;;;0.20;;
79220;SDS011;72175;52.118;5.406;2023-12-28T06:29:11;2.10;;;0.20;;
79220;SDS011;72175;52.118;5.406;2023-12-28T06:31:39;2.40;;;0.30;;
79220;SDS011;72175;52.118;5.406;2023-12-28T06:34:06;2.28;;;0.32;;
79220;SDS011;72175;52.118;5.406;2023-12-28T06:36:33;1.75;;;0.20;;
79220;SDS011;72175;52.118;5.406;2023-12-28T06:39:01;2.38;;;0.20;;
79220;SDS011;72175;52.118;5.406;2023-12-28T06:41:28;1.65;;;0.10;;
79220;SDS011;72175;52.118;5.406;2023-12-28T06:43:54;1.35;;;0.10;;
79220;SDS011;72175;52.118;5.406;2023-12-28T06:46:23;1.98;;;0.30;;
79220;SDS011;72175;52.118;5.406;2023-12-28T06:48:49;4.10;;;0.40;;
79220;SDS011;72175;52.118;5.406;2023-12-28T06:51:19;3.38;;;0.30;;
79220;SDS011;72175;52.118;5.406;2023-12-28T06:53:48;1.80;;;0.20;;
79220;SDS011;72175;52.118;5.406;2023-12-28T06:56:16;1.42;;;0.30;;
79220;SDS011;72175;52.118;5.406;2023-12-28T06:58:43;0.82;;;0.10;;
79220;SDS011;72175;52.118;5.406;2023-12-28T07:01:13;1.13;;;0.10;;
79220;SDS011;72175;52.118;5.406;2023-12-28T07:03:40;4.35;;;0.40;;
79220;SDS011;72175;52.118;5.406;2023-12-28T07:06:07;2.17;;;0.20;;
79220;SDS011;72175;52.118;5.406;2023-12-28T07:08:36;2.55;;;0.63;;
79220;SDS011;72175;52.118;5.406;2023-12-28T07:11:03;1.63;;;0.30;;
79220;SDS011;72175;52.118;5.406;2023-12-28T07:13:31;2.08;;;0.20;;
79220;SDS011;72175;52.118;5.406;2023-12-28T07:16:04;1.65;;;0.20;;
79220;SDS011;72175;52.118;5.406;2023-12-28T07:18:34;2.17;;;0.25;;
79220;SDS011;72175;52.118;5.406;2023-12-28T07:21:00;1.67;;;0.30;;
79220;SDS011;72175;52.118;5.406;2023-12-28T07:23:27;1.70;;;0.30;;
79220;SDS011;72175;52.118;5.406;2023-12-28T07:25:54;2.30;;;0.20;;
79220;SDS011;72175;52.118;5.406;2023-12-28T07:28:21;1.48;;;0.15;;
79220;SDS011;72175;52.118;5.406;2023-12-28T07:30:48;2.33;;;0.50;;
79220;SDS011;72175;52.118;5.406;2023-12-28T07:33:15;1.77;;;0.20;;
79220;SDS011;72175;52.118;5.406;2023-12-28T07:35:42;3.15;;;0.40;;
79220;SDS011;72175;52.118;5.406;2023-12-28T07:38:10;1.58;;;0.30;;
79220;SDS011;72175;52.118;5.406;2023-12-28T07:40:37;2.75;;;0.38;;
79220;SDS011;72175;52.118;5.406;2023-12-28T07:43:03;2.22;;;0.10;;
79220;SDS011;72175;52.118;5.406;2023-12-28T07:45:32;3.92;;;0.45;;
79220;SDS011;72175;52.118;5.406;2023-12-28T07:47:59;1.88;;;0.15;;
79220;SDS011;72175;52.118;5.406;2023-12-28T07:50:26;2.47;;;0.20;;
79220;SDS011;72175;52.118;5.406;2023-12-28T07:52:53;3.05;;;0.40;;
79220;SDS011;72175;52.118;5.406;2023-12-28T07:55:19;3.05;;;0.10;;
79220;SDS011;72175;52.118;5.406;2023-12-28T07:57:46;3.35;;;0.20;;
79220;SDS011;72175;52.118;5.406;2023-12-28T08:00:16;1.25;;;0.20;;
79220;SDS011;72175;52.118;5.406;2023-12-28T08:02:43;2.28;;;0.10;;
79220;SDS011;72175;52.118;5.406;2023-12-28T08:05:09;2.47;;;0.20;;
79220;SDS011;72175;52.118;5.406;2023-12-28T08:07:36;3.60;;;0.82;;
79220;SDS011;72175;52.118;5.406;2023-12-28T08:10:03;2.42;;;0.30;;
79220;SDS011;72175;52.118;5.406;2023-12-28T08:12:31;2.47;;;0.50;;
79220;SDS011;72175;52.118;5.406;2023-12-28T08:14:58;3.05;;;0.28;;
79220;SDS011;72175;52.118;5.406;2023-12-28T08:17:26;2.47;;;0.22;;
79220;SDS011;72175;52.118;5.406;2023-12-28T08:19:53;1.35;;;0.20;;
79220;SDS011;72175;52.118;5.406;2023-12-28T08:22:22;1.70;;;0.17;;
79220;SDS011;72175;52.118;5.406;2023-12-28T08:24:49;3.08;;;0.45;;
79220;SDS011;72175;52.118;5.406;2023-12-28T08:27:15;4.13;;;0.20;;
79220;SDS011;72175;52.118;5.406;2023-12-28T08:29:42;2.45;;;0.20;;
79220;SDS011;72175;52.118;5.406;2023-12-28T08:32:08;3.22;;;0.32;;
79220;SDS011;72175;52.118;5.406;2023-12-28T08:34:38;5.88;;;0.60;;
79220;SDS011;72175;52.118;5.406;2023-12-28T08:37:05;2.25;;;0.57;;
79220;SDS011;72175;52.118;5.406;2023-12-28T08:39:32;3.75;;;0.35;;
79220;SDS011;72175;52.118;5.406;2023-12-28T08:41:59;3.72;;;0.45;;
79220;SDS011;72175;52.118;5.406;2023-12-28T08:44:25;3.42;;;0.40;;
79220;SDS011;72175;52.118;5.406;2023-12-28T08:46:52;2.65;;;0.28;;
79220;SDS011;72175;52.118;5.406;2023-12-28T08:49:18;2.83;;;0.30;;
79220;SDS011;72175;52.118;5.406;2023-12-28T08:51:45;3.08;;;0.20;;
79220;SDS011;72175;52.118;5.406;2023-12-28T08:54:13;2.88;;;0.20;;
79220;SDS011;72175;52.118;5.406;2023-12-28T08:56:40;3.30;;;0.30;;
79220;SDS011;72175;52.118;5.406;2023-12-28T08:59:07;7.22;;;0.35;;
79220;SDS011;72175;52.118;5.406;2023-12-28T09:01:35;3.58;;;0.22;;
79220;SDS011;72175;52.118;5.406;2023-12-28T09:04:01;8.30;;;0.32;;
79220;SDS011;72175;52.118;5.406;2023-12-28T09:06:28;3.58;;;0.30;;
79220;SDS011;72175;52.118;5.406;2023-12-28T09:08:55;3.67;;;0.30;;
79220;SDS011;72175;52.118;5.406;2023-12-28T09:11:22;5.50;;;0.28;;
79220;SDS011;72175;52.118;5.406;2023-12-28T09:13:49;5.60;;;0.30;;
79220;SDS011;72175;52.118;5.406;2023-12-28T09:16:16;6.47;;;0.30;;
79220;SDS011;72175;52.118;5.406;2023-12-28T09:18:43;2.58;;;0.22;;
79220;SDS011;72175;52.118;5.406;2023-12-28T09:21:10;2.95;;;0.22;;
79220;SDS011;72175;52.118;5.406;2023-12-28T09:23:38;4.28;;;0.20;;
79220;SDS011;72175;52.118;5.406;2023-12-28T09:26:07;2.72;;;0.20;;
79220;SDS011;72175;52.118;5.406;2023-12-28T09:28:34;7.38;;;0.30;;
79220;SDS011;72175;52.118;5.406;2023-12-28T09:31:01;2.95;;;0.32;;
79220;SDS011;72175;52.118;5.406;2023-12-28T09:33:29;2.63;;;0.20;;
79220;SDS011;72175;52.118;5.406;2023-12-28T09:35:58;2.78;;;0.22;;
79220;SDS011;72175;52.118;5.406;2023-12-28T09:38:24;3.75;;;0.30;;
79220;SDS011;72175;52.118;5.406;2023-12-28T09:40:53;3.88;;;0.38;;
79220;SDS011;72175;52.118;5.406;2023-12-28T09:43:25;5.43;;;0.47;;
79220;SDS011;72175;52.118;5.406;2023-12-28T09:45:56;4.65;;;0.50;;
79220;SDS011;72175;52.118;5.406;2023-12-28T09:48:23;7.25;;;0.50;;
79220;SDS011;72175;52.118;5.406;2023-12-28T09:50:50;2.35;;;0.15;;
79220;SDS011;72175;52.118;5.406;2023-12-28T09:53:23;6.03;;;0.50;;
79220;SDS011;72175;52.118;5.406;2023-12-28T09:55:53;7.97;;;0.30;;
79220;SDS011;72175;52.118;5.406;2023-12-28T09:58:20;4.20;;;0.60;;
79220;SDS011;72175;52.118;5.406;2023-12-28T10:00:48;4.40;;;0.50;;
79220;SDS011;72175;52.118;5.406;2023-12-28T10:03:18;6.13;;;0.45;;
79220;SDS011;72175;52.118;5.406;2023-12-28T10:05:45;4.47;;;0.30;;
79220;SDS011;72175;52.118;5.406;2023-12-28T10:08:13;4.85;;;0.28;;
79220;SDS011;72175;52.118;5.406;2023-12-28T10:10:41;2.45;;;0.40;;
79220;SDS011;72175;52.118;5.406;2023-12-28T10:13:09;3.67;;;0.22;;
79220;SDS011;72175;52.118;5.406;2023-12-28T10:15:37;4.18;;;0.30;;
79220;SDS011;72175;52.118;5.406;2023-12-28T10:18:08;5.30;;;0.30;;
79220;SDS011;72175;52.118;5.406;2023-12-28T10:20:34;5.13;;;0.32;;
79220;SDS011;72175;52.118;5.406;2023-12-28T10:23:01;4.60;;;0.30;;
79220;SDS011;72175;52.118;5.406;2023-12-28T10:25:31;4.47;;;0.43;;
79220;SDS011;72175;52.118;5.406;2023-12-28T10:28:03;3.58;;;0.20;;
79220;SDS011;72175;52.118;5.406;2023-12-28T10:30:33;5.05;;;0.30;;
79220;SDS011;72175;52.118;5.406;2023-12-28T10:33:00;3.92;;;0.40;;
79220;SDS011;72175;52.118;5.406;2023-12-28T10:35:28;4.22;;;0.80;;
79220;SDS011;72175;52.118;5.406;2023-12-28T10:37:56;2.53;;;0.30;;
79220;SDS011;72175;52.118;5.406;2023-12-28T10:40:26;2.45;;;0.45;;
79220;SDS011;72175;52.118;5.406;2023-12-28T10:43:02;4.80;;;0.35;;
79220;SDS011;72175;52.118;5.406;2023-12-28T10:45:32;3.00;;;0.20;;
79220;SDS011;72175;52.118;5.406;2023-12-28T10:48:10;5.38;;;0.38;;
79220;SDS011;72175;52.118;5.406;2023-12-28T10:53:19;5.68;;;0.25;;
79220;SDS011;72175;52.118;5.406;2023-12-28T10:58:39;4.63;;;0.45;;
79220;SDS011;72175;52.118;5.406;2023-12-28T11:01:19;3.50;;;0.20;;
79220;SDS011;72175;52.118;5.406;2023-12-28T11:04:11;3.55;;;0.40;;
79220;SDS011;72175;52.118;5.406;2023-12-28T11:06:51;5.70;;;0.40;;
79220;SDS011;72175;52.118;5.406;2023-12-28T11:09:20;4.43;;;0.22;;
79220;SDS011;72175;52.118;5.406;2023-12-28T11:11:48;3.65;;;0.40;;
79220;SDS011;72175;52.118;5.406;2023-12-28T11:14:17;4.65;;;0.98;;
79220;SDS011;72175;52.118;5.406;2023-12-28T11:16:44;4.10;;;0.50;;
79220;SDS011;72175;52.118;5.406;2023-12-28T11:19:11;3.92;;;0.40;;
79220;SDS011;72175;52.118;5.406;2023-12-28T11:21:39;2.83;;;0.20;;
79220;SDS011;72175;52.118;5.406;2023-12-28T11:24:07;3.70;;;0.40;;
79220;SDS011;72175;52.118;5.406;2023-12-28T11:26:34;3.10;;;0.35;;
79220;SDS011;72175;52.118;5.406;2023-12-28T11:29:02;3.35;;;0.30;;
79220;SDS011;72175;52.118;5.406;2023-12-28T11:31:33;3.17;;;0.30;;
79220;SDS011;72175;52.118;5.406;2023-12-28T11:34:01;4.50;;;0.57;;
79220;SDS011;72175;52.118;5.406;2023-12-28T11:39:04;4.75;;;0.30;;
79220;SDS011;72175;52.118;5.406;2023-12-28T11:41:33;6.70;;;0.40;;
79220;SDS011;72175;52.118;5.406;2023-12-28T11:44:02;5.40;;;0.45;;
79220;SDS011;72175;52.118;5.406;2023-12-28T11:46:34;3.35;;;0.30;;
79220;SDS011;72175;52.118;5.406;2023-12-28T11:49:04;11.00;;;0.60;;
79220;SDS011;72175;52.118;5.406;2023-12-28T11:51:32;6.13;;;0.30;;
79220;SDS011;72175;52.118;5.406;2023-12-28T11:54:01;3.75;;;0.40;;
79220;SDS011;72175;52.118;5.406;2023-12-28T11:56:35;3.50;;;0.28;;
79220;SDS011;72175;52.118;5.406;2023-12-28T11:59:03;3.20;;;0.52;;
79220;SDS011;72175;52.118;5.406;2023-12-28T12:01:29;5.57;;;0.40;;
79220;SDS011;72175;52.118;5.406;2023-12-28T12:03:57;5.43;;;0.30;;
79220;SDS011;72175;52.118;5.406;2023-12-28T12:06:24;4.30;;;0.30;;
79220;SDS011;72175;52.118;5.406;2023-12-28T12:08:51;2.85;;;0.25;;
79220;SDS011;72175;52.118;5.406;2023-12-28T12:11:18;2.83;;;0.40;;
79220;SDS011;72175;52.118;5.406;2023-12-28T12:13:49;5.32;;;0.50;;
79220;SDS011;72175;52.118;5.406;2023-12-28T12:16:17;6.75;;;0.57;;
79220;SDS011;72175;52.118;5.406;2023-12-28T12:18:44;3.45;;;0.43;;
79220;SDS011;72175;52.118;5.406;2023-12-28T12:21:11;6.13;;;0.52;;
79220;SDS011;72175;52.118;5.406;2023-12-28T12:23:38;4.28;;;0.65;;
79220;SDS011;72175;52.118;5.406;2023-12-28T12:26:05;5.13;;;0.57;;
79220;SDS011;72175;52.118;5.406;2023-12-28T12:28:34;4.75;;;0.32;;
79220;SDS011;72175;52.118;5.406;2023-12-28T12:31:00;2.63;;;0.15;;
79220;SDS011;72175;52.118;5.406;2023-12-28T12:33:27;5.13;;;0.30;;
79220;SDS011;72175;52.118;5.406;2023-12-28T12:35:56;2.42;;;0.20;;
79220;SDS011;72175;52.118;5.406;2023-12-28T12:38:23;3.60;;;0.32;;
79220;SDS011;72175;52.118;5.406;2023-12-28T12:40:50;3.08;;;0.20;;
79220;SDS011;72175;52.118;5.406;2023-12-28T12:43:18;3.55;;;0.20;;
79220;SDS011;72175;52.118;5.406;2023-12-28T12:45:45;3.72;;;0.25;;
79220;SDS011;72175;52.118;5.406;2023-12-28T12:48:14;5.22;;;0.35;;
79220;SDS011;72175;52.118;5.406;2023-12-28T12:50:42;2.10;;;0.30;;
79220;SDS011;72175;52.118;5.406;2023-12-28T12:53:09;6.32;;;0.40;;
79220;SDS011;72175;52.118;5.406;2023-12-28T12:55:37;4.28;;;0.60;;
79220;SDS011;72175;52.118;5.406;2023-12-28T12:58:11;3.17;;;0.22;;
79220;SDS011;72175;52.118;5.406;2023-12-28T13:00:39;3.90;;;0.35;;
79220;SDS011;72175;52.118;5.406;2023-12-28T13:03:09;3.00;;;0.35;;
79220;SDS011;72175;52.118;5.406;2023-12-28T13:05:36;4.47;;;0.50;;
79220;SDS011;72175;52.118;5.406;2023-12-28T13:08:04;12.75;;;1.52;;
79220;SDS011;72175;52.118;5.406;2023-12-28T13:10:31;3.88;;;0.30;;
79220;SDS011;72175;52.118;5.406;2023-12-28T13:13:01;5.80;;;0.50;;
79220;SDS011;72175;52.118;5.406;2023-12-28T13:15:28;4.03;;;0.43;;
79220;SDS011;72175;52.118;5.406;2023-12-28T13:17:55;8.95;;;0.45;;
79220;SDS011;72175;52.118;5.406;2023-12-28T13:20:22;4.30;;;0.20;;
79220;SDS011;72175;52.118;5.406;2023-12-28T13:22:48;3.95;;;0.68;;
79220;SDS011;72175;52.118;5.406;2023-12-28T13:25:15;4.20;;;0.47;;
79220;SDS011;72175;52.118;5.406;2023-12-28T13:27:41;6.47;;;0.43;;
79220;SDS011;72175;52.118;5.406;2023-12-28T13:30:08;3.90;;;0.40;;
79220;SDS011;72175;52.118;5.406;2023-12-28T13:32:37;6.78;;;0.82;;
79220;SDS011;72175;52.118;5.406;2023-12-28T13:35:04;6.00;;;0.32;;
79220;SDS011;72175;52.118;5.406;2023-12-28T13:37:31;5.75;;;0.30;;
79220;SDS011;72175;52.118;5.406;2023-12-28T13:39:57;6.65;;;0.40;;
79220;SDS011;72175;52.118;5.406;2023-12-28T13:42:24;4.78;;;0.65;;
79220;SDS011;72175;52.118;5.406;2023-12-28T13:44:51;2.83;;;0.30;;
79220;SDS011;72175;52.118;5.406;2023-12-28T13:47:18;6.15;;;0.47;;
79220;SDS011;72175;52.118;5.406;2023-12-28T13:49:44;8.07;;;0.68;;
79220;SDS011;72175;52.118;5.406;2023-12-28T13:52:11;5.40;;;0.40;;
79220;SDS011;72175;52.118;5.406;2023-12-28T13:54:38;4.90;;;0.40;;
79220;SDS011;72175;52.118;5.406;2023-12-28T13:57:04;7.68;;;0.43;;
79220;SDS011;72175;52.118;5.406;2023-12-28T13:59:31;10.02;;;0.80;;
79220;SDS011;72175;52.118;5.406;2023-12-28T14:01:59;5.88;;;0.70;;
79220;SDS011;72175;52.118;5.406;2023-12-28T14:04:26;5.85;;;0.70;;
79220;SDS011;72175;52.118;5.406;2023-12-28T14:06:53;7.85;;;0.65;;
79220;SDS011;72175;52.118;5.406;2023-12-28T14:09:21;4.57;;;1.02;;
79220;SDS011;72175;52.118;5.406;2023-12-28T14:11:48;5.45;;;0.63;;
79220;SDS011;72175;52.118;5.406;2023-12-28T14:14:15;5.38;;;0.35;;
79220;SDS011;72175;52.118;5.406;2023-12-28T14:16:41;6.22;;;0.63;;
79220;SDS011;72175;52.118;5.406;2023-12-28T14:19:12;5.47;;;0.60;;
79220;SDS011;72175;52.118;5.406;2023-12-28T14:21:39;5.50;;;0.70;;
79220;SDS011;72175;52.118;5.406;2023-12-28T14:24:06;6.57;;;0.57;;
79220;SDS011;72175;52.118;5.406;2023-12-28T14:26:33;8.00;;;0.50;;
79220;SDS011;72175;52.118;5.406;2023-12-28T14:29:01;6.15;;;0.85;;
79220;SDS011;72175;52.118;5.406;2023-12-28T14:31:32;5.05;;;0.38;;
79220;SDS011;72175;52.118;5.406;2023-12-28T14:33:59;7.07;;;0.60;;
79220;SDS011;72175;52.118;5.406;2023-12-28T14:36:33;8.45;;;0.43;;
79220;SDS011;72175;52.118;5.406;2023-12-28T14:39:04;6.05;;;0.45;;
79220;SDS011;72175;52.118;5.406;2023-12-28T14:41:36;5.47;;;0.40;;
79220;SDS011;72175;52.118;5.406;2023-12-28T14:44:07;3.72;;;0.40;;
79220;SDS011;72175;52.118;5.406;2023-12-28T14:46:35;6.13;;;0.60;;
79220;SDS011;72175;52.118;5.406;2023-12-28T14:49:03;8.35;;;0.82;;
79220;SDS011;72175;52.118;5.406;2023-12-28T14:51:30;5.93;;;0.80;;
79220;SDS011;72175;52.118;5.406;2023-12-28T14:53:57;5.28;;;0.65;;
79220;SDS011;72175;52.118;5.406;2023-12-28T14:56:23;3.53;;;0.47;;
79220;SDS011;72175;52.118;5.406;2023-12-28T14:58:51;6.65;;;0.50;;
79220;SDS011;72175;52.118;5.406;2023-12-28T15:01:18;4.45;;;0.32;;
79220;SDS011;72175;52.118;5.406;2023-12-28T15:03:46;6.97;;;0.95;;